Glen Ridge, New Jersey
Current Conditions -  °F | °C
As of 3:33 AM on Monday 24 Nov 2014 (Local Time) from KCDW Reporting Station
Moderate Rain Moderate Rain  
Wind Chill: 57°   Ceiling: 1200
Heat Index: 57°   Visibility: 4mi
Dew Point: 55°   Wind: 16mph
Humidity: 93%   Direction: 150°SSE
Pressure: 29.77"   Gusts: 25mph
Location:  40.8°N, 74.2°W
Report Text: KCDW 240833Z AUTO 15014G22KT 4SM RA BR FEW008 BKN012 OVC030 14/13 A2977 RMK AO2 P0011 T01390128 TSNO
Loading
Personal Weather Stations






























Interactive Weather Map New forecast layout! Learn more

10-Day Weather Forecast

Advertisements
Track Severe Weather on mobile